sensor_id;sensor_type;location;lat;lon;timestamp;P1;durP1;ratioP1;P2;durP2;ratioP2
71496;SDS011;59317;53.218;5.730;2023-07-13T00:01:39;6.23;;;1.10;;
71496;SDS011;59317;53.218;5.730;2023-07-13T00:04:05;9.02;;;1.00;;
71496;SDS011;59317;53.218;5.730;2023-07-13T00:06:32;5.30;;;1.00;;
71496;SDS011;59317;53.218;5.730;2023-07-13T00:08:58;7.40;;;1.10;;
71496;SDS011;59317;53.218;5.730;2023-07-13T00:11:24;7.57;;;1.10;;
71496;SDS011;59317;53.218;5.730;2023-07-13T00:13:51;7.57;;;0.95;;
71496;SDS011;59317;53.218;5.730;2023-07-13T00:16:17;9.02;;;1.38;;
71496;SDS011;59317;53.218;5.730;2023-07-13T00:18:44;7.18;;;1.00;;
71496;SDS011;59317;53.218;5.730;2023-07-13T00:21:10;7.35;;;1.00;;
71496;SDS011;59317;53.218;5.730;2023-07-13T00:23:37;5.40;;;1.08;;
71496;SDS011;59317;53.218;5.730;2023-07-13T00:26:04;6.65;;;1.05;;
71496;SDS011;59317;53.218;5.730;2023-07-13T00:28:32;9.88;;;1.25;;
71496;SDS011;59317;53.218;5.730;2023-07-13T00:30:58;5.67;;;0.90;;
71496;SDS011;59317;53.218;5.730;2023-07-13T00:33:25;7.60;;;1.20;;
71496;SDS011;59317;53.218;5.730;2023-07-13T00:35:51;6.45;;;1.00;;
71496;SDS011;59317;53.218;5.730;2023-07-13T00:38:17;9.07;;;1.40;;
71496;SDS011;59317;53.218;5.730;2023-07-13T00:40:43;6.85;;;1.23;;
71496;SDS011;59317;53.218;5.730;2023-07-13T00:43:13;5.72;;;1.10;;
71496;SDS011;59317;53.218;5.730;2023-07-13T00:48:08;6.72;;;0.85;;
71496;SDS011;59317;53.218;5.730;2023-07-13T00:50:34;8.02;;;0.95;;
71496;SDS011;59317;53.218;5.730;2023-07-13T00:53:00;7.07;;;0.98;;
71496;SDS011;59317;53.218;5.730;2023-07-13T00:55:27;5.28;;;0.95;;
71496;SDS011;59317;53.218;5.730;2023-07-13T00:57:53;4.38;;;0.80;;
71496;SDS011;59317;53.218;5.730;2023-07-13T01:00:19;5.00;;;0.70;;
71496;SDS011;59317;53.218;5.730;2023-07-13T01:02:46;6.18;;;0.93;;
71496;SDS011;59317;53.218;5.730;2023-07-13T01:05:14;4.72;;;0.60;;
71496;SDS011;59317;53.218;5.730;2023-07-13T01:07:41;5.23;;;0.80;;
71496;SDS011;59317;53.218;5.730;2023-07-13T01:10:08;4.95;;;0.68;;
71496;SDS011;59317;53.218;5.730;2023-07-13T01:12:35;5.23;;;0.70;;
71496;SDS011;59317;53.218;5.730;2023-07-13T01:15:02;6.55;;;0.90;;
71496;SDS011;59317;53.218;5.730;2023-07-13T01:17:29;5.50;;;0.80;;
71496;SDS011;59317;53.218;5.730;2023-07-13T01:19:56;5.47;;;0.80;;
71496;SDS011;59317;53.218;5.730;2023-07-13T01:22:22;6.18;;;0.77;;
71496;SDS011;59317;53.218;5.730;2023-07-13T01:24:52;7.65;;;0.90;;
71496;SDS011;59317;53.218;5.730;2023-07-13T01:27:23;7.15;;;0.90;;
71496;SDS011;59317;53.218;5.730;2023-07-13T01:29:53;6.93;;;0.95;;
71496;SDS011;59317;53.218;5.730;2023-07-13T01:32:27;5.72;;;1.00;;
71496;SDS011;59317;53.218;5.730;2023-07-13T01:34:53;7.28;;;1.08;;
71496;SDS011;59317;53.218;5.730;2023-07-13T01:37:20;6.07;;;1.17;;
71496;SDS011;59317;53.218;5.730;2023-07-13T01:39:46;5.32;;;1.08;;
71496;SDS011;59317;53.218;5.730;2023-07-13T01:42:12;8.27;;;1.10;;
71496;SDS011;59317;53.218;5.730;2023-07-13T01:44:38;8.32;;;1.50;;
71496;SDS011;59317;53.218;5.730;2023-07-13T01:47:04;7.32;;;1.10;;
71496;SDS011;59317;53.218;5.730;2023-07-13T01:49:31;7.93;;;1.20;;
71496;SDS011;59317;53.218;5.730;2023-07-13T01:51:57;7.70;;;1.45;;
71496;SDS011;59317;53.218;5.730;2023-07-13T01:54:23;8.35;;;1.20;;
71496;SDS011;59317;53.218;5.730;2023-07-13T01:56:49;9.23;;;1.30;;
71496;SDS011;59317;53.218;5.730;2023-07-13T01:59:15;8.75;;;1.38;;
71496;SDS011;59317;53.218;5.730;2023-07-13T02:01:41;8.65;;;1.63;;
71496;SDS011;59317;53.218;5.730;2023-07-13T02:04:07;9.00;;;1.40;;
71496;SDS011;59317;53.218;5.730;2023-07-13T02:06:33;8.32;;;1.33;;
71496;SDS011;59317;53.218;5.730;2023-07-13T02:08:59;8.00;;;1.60;;
71496;SDS011;59317;53.218;5.730;2023-07-13T02:11:25;10.00;;;1.60;;
71496;SDS011;59317;53.218;5.730;2023-07-13T02:13:57;9.77;;;1.75;;
71496;SDS011;59317;53.218;5.730;2023-07-13T02:16:23;8.67;;;1.57;;
71496;SDS011;59317;53.218;5.730;2023-07-13T02:18:49;7.20;;;1.50;;
71496;SDS011;59317;53.218;5.730;2023-07-13T02:21:17;9.02;;;1.67;;
71496;SDS011;59317;53.218;5.730;2023-07-13T02:23:43;9.25;;;1.75;;
71496;SDS011;59317;53.218;5.730;2023-07-13T02:26:09;9.40;;;1.83;;
71496;SDS011;59317;53.218;5.730;2023-07-13T02:28:35;7.83;;;1.80;;
71496;SDS011;59317;53.218;5.730;2023-07-13T02:31:05;9.13;;;1.83;;
71496;SDS011;59317;53.218;5.730;2023-07-13T02:33:31;9.37;;;1.80;;
71496;SDS011;59317;53.218;5.730;2023-07-13T02:35:57;8.53;;;1.67;;
71496;SDS011;59317;53.218;5.730;2023-07-13T02:38:23;9.17;;;1.70;;
71496;SDS011;59317;53.218;5.730;2023-07-13T02:40:49;7.93;;;1.90;;
71496;SDS011;59317;53.218;5.730;2023-07-13T02:43:16;9.85;;;2.15;;
71496;SDS011;59317;53.218;5.730;2023-07-13T02:45:45;12.13;;;2.20;;
71496;SDS011;59317;53.218;5.730;2023-07-13T02:48:13;10.57;;;2.20;;
71496;SDS011;59317;53.218;5.730;2023-07-13T02:50:39;11.30;;;2.30;;
71496;SDS011;59317;53.218;5.730;2023-07-13T02:53:05;12.00;;;2.28;;
71496;SDS011;59317;53.218;5.730;2023-07-13T02:55:31;12.55;;;2.60;;
71496;SDS011;59317;53.218;5.730;2023-07-13T02:57:57;12.25;;;2.50;;
71496;SDS011;59317;53.218;5.730;2023-07-13T03:00:24;12.02;;;2.80;;
71496;SDS011;59317;53.218;5.730;2023-07-13T03:02:50;11.90;;;2.58;;
71496;SDS011;59317;53.218;5.730;2023-07-13T03:05:16;11.73;;;2.60;;
71496;SDS011;59317;53.218;5.730;2023-07-13T03:07:43;10.90;;;2.97;;
71496;SDS011;59317;53.218;5.730;2023-07-13T03:10:09;12.45;;;2.90;;
71496;SDS011;59317;53.218;5.730;2023-07-13T03:12:35;10.00;;;2.75;;
71496;SDS011;59317;53.218;5.730;2023-07-13T03:15:01;15.55;;;3.20;;
71496;SDS011;59317;53.218;5.730;2023-07-13T03:17:27;13.27;;;3.20;;
71496;SDS011;59317;53.218;5.730;2023-07-13T03:19:53;11.30;;;2.92;;
71496;SDS011;59317;53.218;5.730;2023-07-13T03:22:19;11.85;;;3.10;;
71496;SDS011;59317;53.218;5.730;2023-07-13T03:24:46;12.23;;;3.40;;
71496;SDS011;59317;53.218;5.730;2023-07-13T03:27:13;13.98;;;3.38;;
71496;SDS011;59317;53.218;5.730;2023-07-13T03:29:39;12.15;;;3.22;;
71496;SDS011;59317;53.218;5.730;2023-07-13T03:32:05;13.18;;;3.10;;
71496;SDS011;59317;53.218;5.730;2023-07-13T03:34:32;12.05;;;2.88;;
71496;SDS011;59317;53.218;5.730;2023-07-13T03:36:58;12.23;;;3.15;;
71496;SDS011;59317;53.218;5.730;2023-07-13T03:39:24;11.52;;;2.70;;
71496;SDS011;59317;53.218;5.730;2023-07-13T03:41:50;12.50;;;2.77;;
71496;SDS011;59317;53.218;5.730;2023-07-13T03:44:16;14.67;;;3.00;;
71496;SDS011;59317;53.218;5.730;2023-07-13T03:46:42;11.70;;;2.70;;
71496;SDS011;59317;53.218;5.730;2023-07-13T03:49:09;11.40;;;2.67;;
71496;SDS011;59317;53.218;5.730;2023-07-13T03:51:35;13.02;;;3.03;;
71496;SDS011;59317;53.218;5.730;2023-07-13T03:54:01;12.38;;;3.08;;
71496;SDS011;59317;53.218;5.730;2023-07-13T03:56:27;12.70;;;3.03;;
71496;SDS011;59317;53.218;5.730;2023-07-13T03:58:55;12.73;;;3.13;;
71496;SDS011;59317;53.218;5.730;2023-07-13T04:01:22;11.85;;;2.90;;
71496;SDS011;59317;53.218;5.730;2023-07-13T04:03:48;10.75;;;2.97;;
71496;SDS011;59317;53.218;5.730;2023-07-13T04:06:18;13.88;;;2.92;;
71496;SDS011;59317;53.218;5.730;2023-07-13T04:08:49;16.70;;;3.03;;
71496;SDS011;59317;53.218;5.730;2023-07-13T04:11:17;14.73;;;3.13;;
71496;SDS011;59317;53.218;5.730;2023-07-13T04:13:43;13.57;;;3.08;;
71496;SDS011;59317;53.218;5.730;2023-07-13T04:16:09;13.07;;;3.20;;
71496;SDS011;59317;53.218;5.730;2023-07-13T04:18:36;9.48;;;2.88;;
71496;SDS011;59317;53.218;5.730;2023-07-13T04:21:02;10.60;;;3.10;;
71496;SDS011;59317;53.218;5.730;2023-07-13T04:23:28;11.30;;;3.30;;
71496;SDS011;59317;53.218;5.730;2023-07-13T04:25:54;10.88;;;3.35;;
71496;SDS011;59317;53.218;5.730;2023-07-13T04:28:24;11.10;;;3.53;;
71496;SDS011;59317;53.218;5.730;2023-07-13T04:30:50;11.73;;;3.20;;
71496;SDS011;59317;53.218;5.730;2023-07-13T04:33:16;10.80;;;3.07;;
71496;SDS011;59317;53.218;5.730;2023-07-13T04:35:43;10.25;;;3.10;;
71496;SDS011;59317;53.218;5.730;2023-07-13T04:38:11;9.60;;;3.03;;
71496;SDS011;59317;53.218;5.730;2023-07-13T04:40:39;12.13;;;3.10;;
71496;SDS011;59317;53.218;5.730;2023-07-13T04:43:05;8.70;;;3.00;;
71496;SDS011;59317;53.218;5.730;2023-07-13T04:45:31;11.50;;;3.17;;
71496;SDS011;59317;53.218;5.730;2023-07-13T04:47:57;11.23;;;3.20;;
71496;SDS011;59317;53.218;5.730;2023-07-13T04:50:23;11.03;;;3.13;;
71496;SDS011;59317;53.218;5.730;2023-07-13T04:52:50;8.30;;;3.00;;
71496;SDS011;59317;53.218;5.730;2023-07-13T04:55:16;8.90;;;2.83;;
71496;SDS011;59317;53.218;5.730;2023-07-13T04:57:42;9.43;;;2.65;;
71496;SDS011;59317;53.218;5.730;2023-07-13T05:00:10;9.35;;;2.65;;
71496;SDS011;59317;53.218;5.730;2023-07-13T05:02:37;9.17;;;2.30;;
71496;SDS011;59317;53.218;5.730;2023-07-13T05:05:03;12.48;;;2.50;;
71496;SDS011;59317;53.218;5.730;2023-07-13T05:07:30;8.77;;;2.30;;
71496;SDS011;59317;53.218;5.730;2023-07-13T05:09:57;8.52;;;2.28;;
71496;SDS011;59317;53.218;5.730;2023-07-13T05:12:23;7.78;;;2.08;;
71496;SDS011;59317;53.218;5.730;2023-07-13T05:14:50;7.65;;;2.00;;
71496;SDS011;59317;53.218;5.730;2023-07-13T05:17:16;9.73;;;2.30;;
71496;SDS011;59317;53.218;5.730;2023-07-13T05:19:42;7.97;;;2.00;;
71496;SDS011;59317;53.218;5.730;2023-07-13T05:22:08;8.07;;;2.00;;
71496;SDS011;59317;53.218;5.730;2023-07-13T05:24:34;8.30;;;2.20;;
71496;SDS011;59317;53.218;5.730;2023-07-13T05:27:00;8.27;;;1.87;;
71496;SDS011;59317;53.218;5.730;2023-07-13T05:29:26;7.20;;;1.83;;
71496;SDS011;59317;53.218;5.730;2023-07-13T05:31:52;6.75;;;1.90;;
71496;SDS011;59317;53.218;5.730;2023-07-13T05:34:18;7.95;;;1.90;;
71496;SDS011;59317;53.218;5.730;2023-07-13T05:36:44;9.35;;;1.95;;
71496;SDS011;59317;53.218;5.730;2023-07-13T05:39:10;6.78;;;1.55;;
71496;SDS011;59317;53.218;5.730;2023-07-13T05:41:36;7.82;;;1.83;;
71496;SDS011;59317;53.218;5.730;2023-07-13T05:44:03;6.47;;;1.50;;
71496;SDS011;59317;53.218;5.730;2023-07-13T05:46:29;8.70;;;1.70;;
71496;SDS011;59317;53.218;5.730;2023-07-13T05:48:55;7.47;;;1.40;;
71496;SDS011;59317;53.218;5.730;2023-07-13T05:51:22;6.20;;;1.33;;
71496;SDS011;59317;53.218;5.730;2023-07-13T05:53:48;6.80;;;1.10;;
71496;SDS011;59317;53.218;5.730;2023-07-13T05:56:14;5.57;;;1.25;;
71496;SDS011;59317;53.218;5.730;2023-07-13T05:58:40;7.82;;;1.33;;
71496;SDS011;59317;53.218;5.730;2023-07-13T06:01:09;8.85;;;1.30;;
71496;SDS011;59317;53.218;5.730;2023-07-13T06:03:35;6.45;;;1.17;;
71496;SDS011;59317;53.218;5.730;2023-07-13T06:06:03;6.47;;;1.10;;
71496;SDS011;59317;53.218;5.730;2023-07-13T06:08:30;5.90;;;1.00;;
71496;SDS011;59317;53.218;5.730;2023-07-13T06:11:09;6.47;;;1.02;;
71496;SDS011;59317;53.218;5.730;2023-07-13T06:13:38;6.00;;;1.20;;
71496;SDS011;59317;53.218;5.730;2023-07-13T06:16:04;7.15;;;1.10;;
71496;SDS011;59317;53.218;5.730;2023-07-13T06:18:33;5.60;;;1.23;;
71496;SDS011;59317;53.218;5.730;2023-07-13T06:21:01;5.33;;;0.90;;
71496;SDS011;59317;53.218;5.730;2023-07-13T06:23:27;4.30;;;0.90;;
71496;SDS011;59317;53.218;5.730;2023-07-13T06:25:53;5.80;;;0.90;;
71496;SDS011;59317;53.218;5.730;2023-07-13T06:28:19;4.63;;;1.00;;
71496;SDS011;59317;53.218;5.730;2023-07-13T06:30:45;5.40;;;0.98;;
71496;SDS011;59317;53.218;5.730;2023-07-13T06:33:11;5.07;;;0.88;;
71496;SDS011;59317;53.218;5.730;2023-07-13T06:35:37;4.70;;;1.00;;
71496;SDS011;59317;53.218;5.730;2023-07-13T06:38:03;4.17;;;1.00;;
71496;SDS011;59317;53.218;5.730;2023-07-13T06:40:30;6.32;;;1.13;;
71496;SDS011;59317;53.218;5.730;2023-07-13T06:42:56;6.10;;;1.00;;
71496;SDS011;59317;53.218;5.730;2023-07-13T06:45:22;5.37;;;0.90;;
71496;SDS011;59317;53.218;5.730;2023-07-13T06:47:48;7.93;;;1.30;;
71496;SDS011;59317;53.218;5.730;2023-07-13T06:50:14;6.07;;;1.23;;
71496;SDS011;59317;53.218;5.730;2023-07-13T06:52:40;4.45;;;1.08;;
71496;SDS011;59317;53.218;5.730;2023-07-13T06:55:07;5.43;;;1.13;;
71496;SDS011;59317;53.218;5.730;2023-07-13T06:57:33;6.97;;;1.23;;
71496;SDS011;59317;53.218;5.730;2023-07-13T06:59:59;4.83;;;1.07;;
71496;SDS011;59317;53.218;5.730;2023-07-13T07:02:25;4.83;;;1.13;;
71496;SDS011;59317;53.218;5.730;2023-07-13T07:04:51;4.88;;;1.23;;
71496;SDS011;59317;53.218;5.730;2023-07-13T07:07:23;5.47;;;1.25;;
71496;SDS011;59317;53.218;5.730;2023-07-13T07:09:49;4.80;;;1.10;;
71496;SDS011;59317;53.218;5.730;2023-07-13T07:12:15;6.07;;;1.20;;
71496;SDS011;59317;53.218;5.730;2023-07-13T07:14:41;6.35;;;1.00;;
71496;SDS011;59317;53.218;5.730;2023-07-13T07:17:07;7.78;;;1.00;;
71496;SDS011;59317;53.218;5.730;2023-07-13T07:19:33;7.15;;;0.95;;
71496;SDS011;59317;53.218;5.730;2023-07-13T07:21:59;5.80;;;1.25;;
71496;SDS011;59317;53.218;5.730;2023-07-13T07:24:25;3.97;;;0.90;;
71496;SDS011;59317;53.218;5.730;2023-07-13T07:26:51;5.30;;;1.20;;
71496;SDS011;59317;53.218;5.730;2023-07-13T07:29:17;6.20;;;1.40;;
71496;SDS011;59317;53.218;5.730;2023-07-13T07:31:44;5.30;;;1.05;;
71496;SDS011;59317;53.218;5.730;2023-07-13T07:34:10;3.42;;;0.80;;
71496;SDS011;59317;53.218;5.730;2023-07-13T07:36:36;6.93;;;1.00;;
71496;SDS011;59317;53.218;5.730;2023-07-13T07:39:02;4.75;;;1.00;;
71496;SDS011;59317;53.218;5.730;2023-07-13T07:41:28;5.43;;;1.10;;
71496;SDS011;59317;53.218;5.730;2023-07-13T07:43:54;5.07;;;1.03;;
71496;SDS011;59317;53.218;5.730;2023-07-13T07:46:20;7.03;;;1.40;;
71496;SDS011;59317;53.218;5.730;2023-07-13T07:48:46;6.43;;;1.23;;
71496;SDS011;59317;53.218;5.730;2023-07-13T07:51:12;7.32;;;1.30;;
71496;SDS011;59317;53.218;5.730;2023-07-13T07:53:38;5.47;;;1.30;;
71496;SDS011;59317;53.218;5.730;2023-07-13T07:56:04;6.50;;;1.20;;
71496;SDS011;59317;53.218;5.730;2023-07-13T07:58:30;6.35;;;1.30;;
71496;SDS011;59317;53.218;5.730;2023-07-13T08:01:06;8.25;;;1.30;;
71496;SDS011;59317;53.218;5.730;2023-07-13T08:03:32;5.47;;;1.30;;
71496;SDS011;59317;53.218;5.730;2023-07-13T08:05:58;7.70;;;1.60;;
71496;SDS011;59317;53.218;5.730;2023-07-13T08:08:24;6.95;;;1.42;;
71496;SDS011;59317;53.218;5.730;2023-07-13T08:10:50;6.40;;;1.40;;
71496;SDS011;59317;53.218;5.730;2023-07-13T08:13:17;7.27;;;1.57;;
71496;SDS011;59317;53.218;5.730;2023-07-13T08:15:43;6.72;;;1.45;;
71496;SDS011;59317;53.218;5.730;2023-07-13T08:18:09;4.88;;;1.40;;
71496;SDS011;59317;53.218;5.730;2023-07-13T08:20:38;8.07;;;1.58;;
71496;SDS011;59317;53.218;5.730;2023-07-13T08:23:04;6.72;;;1.55;;
71496;SDS011;59317;53.218;5.730;2023-07-13T08:25:30;7.88;;;2.00;;
71496;SDS011;59317;53.218;5.730;2023-07-13T08:27:57;6.72;;;1.45;;
71496;SDS011;59317;53.218;5.730;2023-07-13T08:30:23;7.05;;;1.63;;
71496;SDS011;59317;53.218;5.730;2023-07-13T08:32:49;7.55;;;1.30;;
71496;SDS011;59317;53.218;5.730;2023-07-13T08:35:15;6.32;;;1.20;;
71496;SDS011;59317;53.218;5.730;2023-07-13T08:37:42;5.40;;;1.05;;
71496;SDS011;59317;53.218;5.730;2023-07-13T08:40:08;4.65;;;0.90;;
71496;SDS011;59317;53.218;5.730;2023-07-13T08:47:37;4.88;;;0.90;;
71496;SDS011;59317;53.218;5.730;2023-07-13T08:50:05;5.60;;;1.08;;
71496;SDS011;59317;53.218;5.730;2023-07-13T08:52:35;4.78;;;0.73;;
71496;SDS011;59317;53.218;5.730;2023-07-13T08:55:11;5.97;;;0.90;;
71496;SDS011;59317;53.218;5.730;2023-07-13T08:57:37;4.65;;;0.90;;
71496;SDS011;59317;53.218;5.730;2023-07-13T09:00:05;6.22;;;1.10;;
71496;SDS011;59317;53.218;5.730;2023-07-13T09:02:42;4.32;;;1.00;;
71496;SDS011;59317;53.218;5.730;2023-07-13T09:05:16;5.45;;;0.90;;
71496;SDS011;59317;53.218;5.730;2023-07-13T09:10:28;4.10;;;0.80;;
71496;SDS011;59317;53.218;5.730;2023-07-13T09:13:17;3.53;;;0.70;;
71496;SDS011;59317;53.218;5.730;2023-07-13T09:15:45;3.55;;;0.70;;
71496;SDS011;59317;53.218;5.730;2023-07-13T09:18:14;4.45;;;0.80;;
71496;SDS011;59317;53.218;5.730;2023-07-13T09:23:10;5.55;;;0.90;;
71496;SDS011;59317;53.218;5.730;2023-07-13T09:25:38;3.23;;;0.73;;
71496;SDS011;59317;53.218;5.730;2023-07-13T09:28:15;3.40;;;0.70;;
71496;SDS011;59317;53.218;5.730;2023-07-13T09:30:56;3.77;;;0.80;;
71496;SDS011;59317;53.218;5.730;2023-07-13T09:33:24;2.87;;;0.70;;
71496;SDS011;59317;53.218;5.730;2023-07-13T09:35:54;4.72;;;1.00;;
71496;SDS011;59317;53.218;5.730;2023-07-13T09:38:21;4.03;;;1.10;;
71496;SDS011;59317;53.218;5.730;2023-07-13T09:43:26;4.30;;;0.90;;
71496;SDS011;59317;53.218;5.730;2023-07-13T09:45:54;4.25;;;0.90;;
71496;SDS011;59317;53.218;5.730;2023-07-13T09:48:20;5.68;;;1.10;;
71496;SDS011;59317;53.218;5.730;2023-07-13T09:50:46;5.80;;;1.20;;
71496;SDS011;59317;53.218;5.730;2023-07-13T09:53:16;4.88;;;1.00;;
71496;SDS011;59317;53.218;5.730;2023-07-13T09:55:44;5.05;;;1.00;;
71496;SDS011;59317;53.218;5.730;2023-07-13T09:58:14;5.18;;;1.10;;
71496;SDS011;59317;53.218;5.730;2023-07-13T10:00:41;5.00;;;1.30;;
71496;SDS011;59317;53.218;5.730;2023-07-13T10:05:46;6.28;;;1.30;;
71496;SDS011;59317;53.218;5.730;2023-07-13T10:08:30;5.90;;;1.20;;
71496;SDS011;59317;53.218;5.730;2023-07-13T10:11:01;6.35;;;1.30;;
71496;SDS011;59317;53.218;5.730;2023-07-13T10:13:37;4.60;;;1.10;;
71496;SDS011;59317;53.218;5.730;2023-07-13T10:16:05;5.72;;;1.30;;
71496;SDS011;59317;53.218;5.730;2023-07-13T10:18:39;6.07;;;1.67;;
71496;SDS011;59317;53.218;5.730;2023-07-13T10:21:18;7.18;;;1.42;;
71496;SDS011;59317;53.218;5.730;2023-07-13T10:23:50;5.40;;;1.20;;
71496;SDS011;59317;53.218;5.730;2023-07-13T10:26:19;4.80;;;1.10;;
71496;SDS011;59317;53.218;5.730;2023-07-13T10:28:47;6.00;;;1.50;;
71496;SDS011;59317;53.218;5.730;2023-07-13T10:31:17;6.87;;;1.20;;
71496;SDS011;59317;53.218;5.730;2023-07-13T10:33:44;5.13;;;1.17;;
71496;SDS011;59317;53.218;5.730;2023-07-13T10:38:37;4.90;;;1.15;;
71496;SDS011;59317;53.218;5.730;2023-07-13T10:41:05;4.63;;;1.00;;
71496;SDS011;59317;53.218;5.730;2023-07-13T10:43:33;5.65;;;1.10;;
71496;SDS011;59317;53.218;5.730;2023-07-13T10:46:02;6.07;;;1.30;;
71496;SDS011;59317;53.218;5.730;2023-07-13T10:48:29;4.93;;;1.20;;
71496;SDS011;59317;53.218;5.730;2023-07-13T10:50:59;5.38;;;1.30;;
71496;SDS011;59317;53.218;5.730;2023-07-13T10:53:30;5.85;;;1.40;;
71496;SDS011;59317;53.218;5.730;2023-07-13T10:55:58;5.90;;;1.20;;
71496;SDS011;59317;53.218;5.730;2023-07-13T10:58:33;4.78;;;1.20;;
71496;SDS011;59317;53.218;5.730;2023-07-13T11:03:32;6.40;;;1.50;;
71496;SDS011;59317;53.218;5.730;2023-07-13T11:21:27;5.90;;;1.20;;
71496;SDS011;59317;53.218;5.730;2023-07-13T11:24:02;6.78;;;1.33;;
71496;SDS011;59317;53.218;5.730;2023-07-13T11:31:55;7.40;;;1.55;;
71496;SDS011;59317;53.218;5.730;2023-07-13T11:34:31;8.27;;;1.45;;
71496;SDS011;59317;53.218;5.730;2023-07-13T11:36:59;9.10;;;1.70;;
71496;SDS011;59317;53.218;5.730;2023-07-13T11:41:52;7.10;;;1.63;;
71496;SDS011;59317;53.218;5.730;2023-07-13T11:44:22;6.30;;;1.50;;
71496;SDS011;59317;53.218;5.730;2023-07-13T11:46:52;7.23;;;1.27;;
71496;SDS011;59317;53.218;5.730;2023-07-13T11:49:19;7.97;;;1.75;;
71496;SDS011;59317;53.218;5.730;2023-07-13T11:51:45;8.43;;;1.77;;
71496;SDS011;59317;53.218;5.730;2023-07-13T11:54:23;7.30;;;1.90;;
71496;SDS011;59317;53.218;5.730;2023-07-13T11:56:50;7.68;;;1.88;;
71496;SDS011;59317;53.218;5.730;2023-07-13T11:59:16;10.80;;;1.90;;
71496;SDS011;59317;53.218;5.730;2023-07-13T12:01:47;8.53;;;1.90;;
71496;SDS011;59317;53.218;5.730;2023-07-13T12:07:23;8.50;;;1.83;;
71496;SDS011;59317;53.218;5.730;2023-07-13T12:09:42;9.60;;;1.80;;
71496;SDS011;59317;53.218;5.730;2023-07-13T12:12:12;7.82;;;1.80;;
71496;SDS011;59317;53.218;5.730;2023-07-13T12:14:39;7.25;;;1.75;;
71496;SDS011;59317;53.218;5.730;2023-07-13T12:17:22;8.43;;;1.75;;
71496;SDS011;59317;53.218;5.730;2023-07-13T12:19:48;6.63;;;1.60;;
71496;SDS011;59317;53.218;5.730;2023-07-13T12:22:16;7.63;;;1.60;;
71496;SDS011;59317;53.218;5.730;2023-07-13T12:24:43;8.02;;;1.80;;
71496;SDS011;59317;53.218;5.730;2023-07-13T12:27:20;8.57;;;2.17;;
71496;SDS011;59317;53.218;5.730;2023-07-13T12:29:51;9.07;;;2.00;;
71496;SDS011;59317;53.218;5.730;2023-07-13T12:32:18;7.97;;;2.03;;
71496;SDS011;59317;53.218;5.730;2023-07-13T12:34:55;7.68;;;2.10;;
71496;SDS011;59317;53.218;5.730;2023-07-13T12:37:22;8.90;;;2.13;;
71496;SDS011;59317;53.218;5.730;2023-07-13T12:39:48;7.20;;;1.75;;
71496;SDS011;59317;53.218;5.730;2023-07-13T12:42:28;6.87;;;1.73;;
71496;SDS011;59317;53.218;5.730;2023-07-13T12:47:43;8.05;;;1.80;;
71496;SDS011;59317;53.218;5.730;2023-07-13T12:50:14;7.90;;;1.97;;
71496;SDS011;59317;53.218;5.730;2023-07-13T12:52:42;8.68;;;2.05;;
71496;SDS011;59317;53.218;5.730;2023-07-13T12:55:14;9.25;;;2.05;;
71496;SDS011;59317;53.218;5.730;2023-07-13T12:57:53;6.37;;;1.50;;
71496;SDS011;59317;53.218;5.730;2023-07-13T13:00:32;8.45;;;1.80;;
71496;SDS011;59317;53.218;5.730;2023-07-13T13:03:21;7.95;;;1.40;;
71496;SDS011;59317;53.218;5.730;2023-07-13T13:05:47;7.47;;;1.87;;
71496;SDS011;59317;53.218;5.730;2023-07-13T13:08:14;7.97;;;1.95;;
71496;SDS011;59317;53.218;5.730;2023-07-13T13:10:40;8.52;;;1.77;;
71496;SDS011;59317;53.218;5.730;2023-07-13T13:13:06;8.93;;;2.00;;
71496;SDS011;59317;53.218;5.730;2023-07-13T13:15:33;8.00;;;1.70;;
71496;SDS011;59317;53.218;5.730;2023-07-13T13:18:02;7.80;;;1.80;;
71496;SDS011;59317;53.218;5.730;2023-07-13T13:20:28;6.32;;;1.75;;
71496;SDS011;59317;53.218;5.730;2023-07-13T13:22:54;6.72;;;1.60;;
71496;SDS011;59317;53.218;5.730;2023-07-13T13:25:20;8.75;;;1.70;;
71496;SDS011;59317;53.218;5.730;2023-07-13T13:27:47;9.53;;;1.70;;
71496;SDS011;59317;53.218;5.730;2023-07-13T13:30:16;7.70;;;1.53;;
71496;SDS011;59317;53.218;5.730;2023-07-13T13:32:43;6.75;;;1.40;;
71496;SDS011;59317;53.218;5.730;2023-07-13T13:35:16;5.33;;;1.47;;
71496;SDS011;59317;53.218;5.730;2023-07-13T13:37:42;7.47;;;1.60;;
71496;SDS011;59317;53.218;5.730;2023-07-13T13:40:19;6.03;;;1.60;;
71496;SDS011;59317;53.218;5.730;2023-07-13T13:42:46;8.38;;;2.17;;
71496;SDS011;59317;53.218;5.730;2023-07-13T13:45:13;8.53;;;1.90;;
71496;SDS011;59317;53.218;5.730;2023-07-13T13:47:41;8.27;;;1.92;;
71496;SDS011;59317;53.218;5.730;2023-07-13T13:50:11;9.85;;;2.20;;
71496;SDS011;59317;53.218;5.730;2023-07-13T13:52:39;8.32;;;1.90;;
71496;SDS011;59317;53.218;5.730;2023-07-13T13:55:15;8.73;;;2.10;;
71496;SDS011;59317;53.218;5.730;2023-07-13T13:57:42;8.38;;;1.80;;
71496;SDS011;59317;53.218;5.730;2023-07-13T14:00:09;8.82;;;1.70;;
71496;SDS011;59317;53.218;5.730;2023-07-13T14:02:40;9.13;;;2.05;;
71496;SDS011;59317;53.218;5.730;2023-07-13T14:05:06;8.07;;;1.90;;
71496;SDS011;59317;53.218;5.730;2023-07-13T14:07:32;6.97;;;1.70;;
71496;SDS011;59317;53.218;5.730;2023-07-13T14:09:59;8.25;;;1.95;;
71496;SDS011;59317;53.218;5.730;2023-07-13T14:12:28;9.10;;;2.15;;
71496;SDS011;59317;53.218;5.730;2023-07-13T14:14:55;8.48;;;2.10;;
71496;SDS011;59317;53.218;5.730;2023-07-13T14:17:24;9.55;;;2.00;;
71496;SDS011;59317;53.218;5.730;2023-07-13T14:19:51;8.30;;;2.17;;
71496;SDS011;59317;53.218;5.730;2023-07-13T14:22:22;9.30;;;2.38;;
71496;SDS011;59317;53.218;5.730;2023-07-13T14:24:48;8.30;;;2.10;;
71496;SDS011;59317;53.218;5.730;2023-07-13T14:27:17;30.65;;;6.93;;
71496;SDS011;59317;53.218;5.730;2023-07-13T14:29:46;13.73;;;3.05;;
71496;SDS011;59317;53.218;5.730;2023-07-13T14:32:12;12.23;;;3.20;;
71496;SDS011;59317;53.218;5.730;2023-07-13T14:34:39;9.60;;;2.20;;
71496;SDS011;59317;53.218;5.730;2023-07-13T14:37:05;8.88;;;2.35;;
71496;SDS011;59317;53.218;5.730;2023-07-13T14:39:34;9.25;;;2.33;;
71496;SDS011;59317;53.218;5.730;2023-07-13T14:42:00;9.48;;;2.55;;
71496;SDS011;59317;53.218;5.730;2023-07-13T14:44:27;8.98;;;2.00;;
71496;SDS011;59317;53.218;5.730;2023-07-13T14:46:57;12.27;;;2.60;;
71496;SDS011;59317;53.218;5.730;2023-07-13T14:49:31;10.73;;;2.50;;
71496;SDS011;59317;53.218;5.730;2023-07-13T14:52:02;7.43;;;2.00;;
71496;SDS011;59317;53.218;5.730;2023-07-13T14:54:29;8.73;;;2.10;;
71496;SDS011;59317;53.218;5.730;2023-07-13T14:56:55;11.90;;;2.40;;
71496;SDS011;59317;53.218;5.730;2023-07-13T14:59:21;8.18;;;2.03;;
71496;SDS011;59317;53.218;5.730;2023-07-13T15:01:48;9.02;;;2.28;;
71496;SDS011;59317;53.218;5.730;2023-07-13T15:04:14;7.63;;;2.28;;
71496;SDS011;59317;53.218;5.730;2023-07-13T15:07:00;8.73;;;2.28;;
71496;SDS011;59317;53.218;5.730;2023-07-13T15:09:27;11.70;;;2.80;;
71496;SDS011;59317;53.218;5.730;2023-07-13T15:11:57;8.77;;;2.50;;
71496;SDS011;59317;53.218;5.730;2023-07-13T15:14:23;9.25;;;2.30;;
71496;SDS011;59317;53.218;5.730;2023-07-13T15:16:50;9.40;;;2.25;;
71496;SDS011;59317;53.218;5.730;2023-07-13T15:19:17;8.85;;;2.03;;
71496;SDS011;59317;53.218;5.730;2023-07-13T15:21:44;8.95;;;2.20;;
71496;SDS011;59317;53.218;5.730;2023-07-13T15:24:10;10.40;;;2.75;;
71496;SDS011;59317;53.218;5.730;2023-07-13T15:26:36;9.82;;;2.28;;
71496;SDS011;59317;53.218;5.730;2023-07-13T15:29:03;10.90;;;2.42;;
71496;SDS011;59317;53.218;5.730;2023-07-13T15:31:29;12.88;;;3.38;;
71496;SDS011;59317;53.218;5.730;2023-07-13T15:33:57;11.23;;;2.50;;
71496;SDS011;59317;53.218;5.730;2023-07-13T15:36:24;8.20;;;2.20;;
71496;SDS011;59317;53.218;5.730;2023-07-13T15:38:54;10.15;;;2.38;;
71496;SDS011;59317;53.218;5.730;2023-07-13T15:41:22;8.73;;;2.30;;